ADDS METAR Data INFO
IDs: Format: Raw Decoded Include TAF

Data at: 1849 UTC 17 Oct 2017

KBZN 171756Z 00000KT 10SM CLR 14/01 A3004 RMK AO2 SLP165 T01390011 10139 21028 58027
KBZN 171656Z 00000KT 10SM CLR 12/M01 A3007 RMK AO2 SLP182 T01171006
KBZN 171556Z 00000KT 10SM CLR 08/M03 A3011 RMK AO2 SLP194 T00831028
KBZN 171456Z 00000KT 10SM CLR 01/M03 A3013 RMK AO2 SLP223 T00061028 55006
KBZN 171356Z 00000KT 10SM CLR M03/M05 A3012 RMK AO2 SLP214 T10281050
KBZN 171256Z 00000KT 10SM CLR M02/M04 A3014 RMK AO2 SLP211 T10171044
KBZN 171156Z 13006KT 10SM CLR 00/M04 A3015 RMK AO2 SLP207 T00001044 10044 21011 56010
KBZN 171056Z AUTO 14007KT 10SM CLR 01/M04 A3016 RMK AO2 SLP206 T00061039
KBZN 170956Z AUTO 13006KT 10SM CLR 00/M04 A3017 RMK AO2 SLP209 T00001039
KBZN 170856Z AUTO 13007KT 10SM CLR 02/M03 A3018 RMK AO2 SLP211 T00171033 55002
KBZN 170756Z AUTO 17007KT 10SM CLR 02/M03 A3018 RMK AO2 SLP213 T00171033
KBZN 170656Z AUTO 18005KT 10SM CLR 04/M03 A3019 RMK AO2 SLP215 T00391028 402061017
KBZN 170556Z 17008KT 10SM CLR 04/M02 A3019 RMK AO2 SLP218 T00441022 10172 20017 50003
KBZN 170456Z 17007KT 10SM CLR 04/M02 A3019 RMK AO2 SLP226 T00441017
KBZN 170356Z 19004KT 10SM CLR 08/M03 A3019 RMK AO2 SLP228 T00781028
KBZN 170256Z 06006KT 10SM CLR 05/M01 A3018 RMK AO2 SLP235 T00501006 53006
KBZN 170156Z 18008KT 10SM CLR 11/M03 A3017 RMK AO2 SLP224 T01111028
KBZN 170056Z 00000KT 10SM CLR 15/M06 A3016 RMK AO2 SLP214 T01501056
KBZN 162356Z 06005KT 9SM CLR 17/M01 A3016 RMK AO2 SLP208 T01721006 10206 20139 56013
KBZN 162256Z 00000KT 10SM CLR 21/M04 A3017 RMK AO2 SLP207 T02061039
KBZN 162156Z 00000KT 10SM CLR 21/M06 A3018 RMK AO2 SLP215 T02061056
KBZN 162056Z 07003KT 10SM CLR 20/M06 A3020 RMK AO2 SLP221 T02001061 58024
KBZN 161956Z 33004KT 10SM CLR 19/M04 A3023 RMK AO2 SLP226 T01891039
KBZN 161856Z 00000KT 10SM CLR 17/M07 A3026 RMK AO2 SLP245 T01671067
KBZN 161756Z 00000KT 10SM CLR 14/M03 A3028 RMK AO2 SLP255 T01391028 10139 21011 58001
KBZN 161656Z 00000KT 10SM CLR 11/M03 A3028 RMK AO2 SLP260 T01111033
KBZN 161556Z 16003KT 10SM CLR 06/M01 A3030 RMK AO2 SLP272 T00611011
KBZN 161456Z 14003KT 10SM CLR 02/M01 A3028 RMK AO2 SLP271 T00221011 53008
KBZN 161356Z 00000KT 10SM CLR 00/M03 A3027 RMK AO2 SLP268 T00001033
KBZN 161256Z 16005KT 10SM CLR 01/M03 A3026 RMK AO2 SLP254 T00061028
KBZN 161156Z 08003KT 10SM CLR 01/M02 A3025 RMK AO2 SLP246 T00111022 10039 21017 51002
KBZN 161056Z AUTO 13007KT 10SM CLR 01/M02 A3025 RMK AO2 SLP244 T00111022
KBZN 160956Z AUTO 00000KT 10SM CLR M02/M03 A3026 RMK AO2 SLP250 T10171033
KBZN 160856Z AUTO 00000KT 10SM CLR 00/M02 A3025 RMK AO2 SLP246 T00001022 51000
KBZN 160756Z AUTO VRB05KT 10SM CLR 04/M01 A3025 RMK AO2 SLP241 T00391011
KBZN 160656Z AUTO 09004KT 10SM CLR 01/M02 A3025 RMK AO2 SLP247 T00111017 401671011